Terminal Aerodrome Forecast
Issued by NWS

Home | Current Version | Previous Version | Text Only | Print | Product List | Glossary Off
Versions: 1 2 3 4 5 6 7 8 9 10 11 12 13 14 15 16

000
FTUS43 KABR 010933 AAA
TAFPIR
TAF AMD
KPIR 010933Z 0110/0206 09006KT 5SM BR SKC
     FM011300 09008KT P6SM SKC
     FM011900 35008KT P6SM OVC150=

USA.gov is the U.S. government's official web portal to all federal, state and local government web resources and services.